LJU weather

Ljubljana Jože Pučnik Airport
Ljubljana, Ljubljana, Slovenia

Public forecast

Using degrees Celsius for public forecast. Weather courtesy of forecast.io.

Current aviation weather report (METAR) for Ljubljana Jože Pučnik Airport

Retrieved 2019/12/10 13:30 UTC (0 seconds ago):

LJLJ 101330Z 33013KT 300V010 9999 FEW060 08/M05 Q1019 NOSIG

Aviation forecast (TAF) for Ljubljana Jože Pučnik Airport

Retrieved 2019/12/10 15:21 UTC (0 seconds ago):

TAF LJLJ 101400Z 1015/1115 30005KT 9999 FEW060 PROB40 TEMPO 1103/1109 BCFG FEW001 BECMG 1109/1111 12004KT